createdAt,value
2018-04-02T00:02:22.632Z,71.40
2018-04-02T00:04:50.867Z,68.07
2018-04-02T00:07:20.276Z,71.40
2018-04-02T00:09:48.508Z,75.47
2018-04-02T00:12:17.135Z,81.93
2018-04-02T00:14:45.417Z,75.30
2018-04-02T00:17:14.423Z,76.37
2018-04-02T00:19:43.424Z,79.93
2018-04-02T00:22:12.083Z,81.13
2018-04-02T00:24:40.716Z,80.93
2018-04-02T00:27:08.947Z,83.13
2018-04-02T00:29:37.612Z,88.27
2018-04-02T00:32:06.240Z,85.43
2018-04-02T00:34:34.477Z,88.53
2018-04-02T00:37:04.451Z,96.17
2018-04-02T00:39:33.451Z,92.33
2018-04-02T00:42:03.064Z,87.83
2018-04-02T00:44:31.736Z,90.80
2018-04-02T00:46:59.965Z,96.20
2018-04-02T00:49:28.200Z,95.47
2018-04-02T00:51:57.444Z,94.13
2018-04-02T00:54:26.077Z,92.63
2018-04-02T00:56:55.664Z,89.00
2018-04-02T00:59:24.584Z,85.17
2018-04-02T01:01:53.600Z,82.63
2018-04-02T01:04:22.596Z,86.17
2018-04-02T01:06:50.872Z,85.20
2018-04-02T01:09:19.113Z,81.47
2018-04-02T01:11:47.344Z,80.60
2018-04-02T01:14:15.620Z,84.47
2018-04-02T01:16:45.367Z,77.73
2018-04-02T01:19:14.376Z,76.87
2018-04-02T01:21:43.441Z,72.97
2018-04-02T01:24:11.688Z,81.53
2018-04-02T01:26:39.928Z,83.57
2018-04-02T01:29:08.956Z,75.43
2018-04-02T01:31:37.956Z,79.20
2018-04-02T01:34:06.193Z,79.00
2018-04-02T01:36:34.663Z,80.50
2018-04-02T01:39:02.900Z,74.20
2018-04-02T01:41:31.156Z,73.07
2018-04-02T01:43:59.601Z,74.17
2018-04-02T01:46:28.604Z,78.83
2018-04-02T01:48:56.840Z,77.77
2018-04-02T01:51:25.232Z,76.83
2018-04-02T01:53:54.204Z,75.40
2018-04-02T01:56:22.836Z,76.20
2018-04-02T01:58:51.125Z,76.17
2018-04-02T02:01:19.356Z,67.73
2018-04-02T02:03:47.594Z,70.83
2018-04-02T02:06:15.877Z,73.10
2018-04-02T02:08:44.112Z,70.20
2018-04-02T02:11:13.481Z,77.20
2018-04-02T02:13:41.980Z,70.50
2018-04-02T02:16:10.988Z,73.70
2018-04-02T02:18:39.992Z,71.17
2018-04-02T02:21:09.032Z,75.57
2018-04-02T02:23:37.268Z,78.17
2018-04-02T02:26:06.273Z,73.23
2018-04-02T02:28:35.327Z,72.30
2018-04-02T02:31:03.556Z,66.80
2018-04-02T02:33:31.793Z,70.20
2018-04-02T02:36:01.440Z,62.10
2018-04-02T02:38:29.552Z,71.37
2018-04-02T02:40:57.784Z,75.37
2018-04-02T02:43:27.188Z,69.70
2018-04-02T02:45:55.423Z,68.60
2018-04-02T02:48:28.081Z,74.40
2018-04-02T02:50:56.321Z,71.60
2018-04-02T02:53:25.916Z,76.90
2018-04-02T02:55:54.366Z,78.30
2018-04-02T02:58:22.992Z,74.17
2018-04-02T03:00:51.996Z,73.87
2018-04-02T03:03:20.800Z,71.30
2018-04-02T03:05:50.166Z,73.17
2018-04-02T03:08:18.396Z,72.40
2018-04-02T03:10:46.677Z,72.73
2018-04-02T03:13:15.304Z,76.20
2018-04-02T03:15:43.536Z,77.13
2018-04-02T03:18:12.568Z,78.30
2018-04-02T03:20:40.812Z,81.47
2018-04-02T03:23:09.036Z,76.37
2018-04-02T03:25:37.572Z,71.70
2018-04-02T03:28:07.159Z,71.77
2018-04-02T03:30:35.278Z,67.40
2018-04-02T03:33:03.560Z,69.67
2018-04-02T03:35:31.801Z,68.07
2018-04-02T03:38:00.801Z,72.40
2018-04-02T03:40:30.044Z,69.17
2018-04-02T03:42:59.040Z,75.23
2018-04-02T03:45:28.044Z,70.40
2018-04-02T03:47:56.792Z,73.07
2018-04-02T03:50:25.036Z,80.70
2018-04-02T03:52:53.268Z,85.07
2018-04-02T03:55:21.536Z,79.40
2018-04-02T03:57:50.541Z,76.40
2018-04-02T04:00:20.127Z,78.67
2018-04-02T04:02:48.851Z,78.30
2018-04-02T04:05:17.853Z,84.90
2018-04-02T04:07:47.597Z,83.10
2018-04-02T04:10:17.252Z,80.03
2018-04-02T04:12:46.252Z,82.70
2018-04-02T04:15:15.254Z,91.07
2018-04-02T04:17:44.752Z,84.90
2018-04-02T04:20:14.124Z,84.33
2018-04-02T04:22:43.496Z,78.57
2018-04-02T04:25:11.764Z,86.57
2018-04-02T04:27:41.356Z,81.50
2018-04-02T04:30:09.862Z,80.90
2018-04-02T04:32:38.129Z,79.30
2018-04-02T04:35:06.365Z,88.77
2018-04-02T04:37:34.606Z,82.20
2018-04-02T04:40:03.672Z,83.10
2018-04-02T04:42:32.673Z,81.80
2018-04-02T04:45:02.416Z,89.47
2018-04-02T04:47:31.868Z,89.57
2018-04-02T04:50:00.868Z,98.80
2018-04-02T04:52:29.110Z,92.17
2018-04-02T04:54:57.389Z,97.20
2018-04-02T04:57:25.624Z,97.33
2018-04-02T04:59:55.367Z,99.37
2018-04-02T05:02:24.432Z,91.03
2018-04-02T05:04:53.438Z,101.23
2018-04-02T05:07:21.680Z,93.37
2018-04-02T05:09:49.965Z,93.47
2018-04-02T05:12:18.965Z,91.27
2018-04-02T05:14:47.964Z,104.37
2018-04-02T05:17:16.235Z,98.03
2018-04-02T05:19:44.480Z,89.73
2018-04-02T05:22:12.711Z,94.37
2018-04-02T05:24:41.006Z,91.67
2018-04-02T05:27:09.249Z,90.10
2018-04-02T05:29:38.628Z,96.70
2018-04-02T05:32:07.924Z,91.03
2018-04-02T05:34:37.524Z,99.17
2018-04-02T05:37:05.640Z,90.70
2018-04-02T05:39:35.067Z,91.60
2018-04-02T05:42:04.068Z,92.90
2018-04-02T05:44:33.276Z,90.93
2018-04-02T05:47:01.664Z,86.77
2018-04-02T05:49:29.899Z,89.57
2018-04-02T05:51:58.909Z,91.70
2018-04-02T05:54:27.953Z,77.37
2018-04-02T05:56:56.952Z,80.63
2018-04-02T05:59:25.956Z,81.83
2018-04-02T06:01:54.268Z,80.00
2018-04-02T06:04:22.500Z,99.07
2018-04-02T06:06:50.736Z,76.67
2018-04-02T06:09:19.308Z,89.80
2018-04-02T06:11:48.679Z,90.67
2018-04-02T06:14:16.916Z,81.80
2018-04-02T06:16:45.229Z,91.07
2018-04-02T06:19:13.452Z,83.07
2018-04-02T06:21:41.692Z,87.73
2018-04-02T06:24:09.968Z,80.60
2018-04-02T06:26:38.200Z,73.17
2018-04-02T06:29:07.792Z,72.57
2018-04-02T06:31:37.846Z,65.10
2018-04-02T06:34:06.064Z,61.87
2018-04-02T06:36:35.644Z,61.13
2018-04-02T06:39:05.383Z,62.40
2018-04-02T06:41:34.844Z,59.37
2018-04-02T06:44:04.305Z,55.00
2018-04-02T06:46:33.807Z,63.63
2018-04-02T06:49:03.316Z,61.87
2018-04-02T06:51:32.724Z,60.73
2018-04-02T06:54:02.395Z,54.60
2018-04-02T06:56:31.850Z,56.80
2018-04-02T06:59:01.299Z,57.03
2018-04-02T07:01:30.795Z,59.23
2018-04-02T07:04:00.259Z,60.07
2018-04-02T07:06:29.719Z,54.50
2018-04-02T07:08:59.372Z,58.80
2018-04-02T07:11:28.840Z,55.37
2018-04-02T07:13:58.312Z,47.93
2018-04-02T07:16:27.799Z,50.43
2018-04-02T07:18:57.255Z,51.80
2018-04-02T07:21:26.724Z,50.97
2018-04-02T07:23:56.227Z,55.10
2018-04-02T07:26:25.696Z,56.00
2018-04-02T07:28:55.151Z,54.53
2018-04-02T07:31:24.655Z,53.67
2018-04-02T07:33:54.128Z,51.17
2018-04-02T07:36:23.583Z,56.20
2018-04-02T07:38:53.082Z,53.00
2018-04-02T07:41:22.548Z,51.23
2018-04-02T07:43:52.157Z,50.90
2018-04-02T07:46:21.647Z,49.97
2018-04-02T07:48:51.111Z,52.57
2018-04-02T07:51:20.572Z,49.70
2018-04-02T07:53:50.246Z,42.70
2018-04-02T07:56:19.700Z,48.53
2018-04-02T07:58:49.167Z,42.30
2018-04-02T08:01:22.563Z,41.87
2018-04-02T08:03:52.020Z,51.80
2018-04-02T08:06:21.484Z,41.27
2018-04-02T08:08:51.156Z,36.93
2018-04-02T08:11:20.644Z,38.93
2018-04-02T08:13:50.106Z,34.27
2018-04-02T08:16:19.632Z,36.77
2018-04-02T08:18:49.167Z,35.47
2018-04-02T08:21:18.674Z,35.00
2018-04-02T08:23:48.127Z,36.00
2018-04-02T08:26:17.596Z,34.63
2018-04-02T08:28:47.084Z,37.80
2018-04-02T08:31:16.580Z,35.03
2018-04-02T08:33:46.053Z,31.03
2018-04-02T08:36:15.524Z,36.50
2018-04-02T08:38:45.255Z,33.77
2018-04-02T08:41:14.664Z,32.87
2018-04-02T08:43:44.124Z,33.90
2018-04-02T08:46:13.956Z,34.07
2018-04-02T08:48:43.413Z,41.73
2018-04-02T08:51:12.872Z,32.50
2018-04-02T08:53:42.355Z,31.47
2018-04-02T08:56:11.816Z,30.17
2018-04-02T08:58:41.284Z,35.57
2018-04-02T09:01:10.775Z,42.00
2018-04-02T09:03:40.249Z,31.07
2018-04-02T09:06:09.708Z,25.77
2018-04-02T09:08:39.224Z,25.87
2018-04-02T09:11:08.680Z,28.37
2018-04-02T09:13:38.143Z,26.27
2018-04-02T09:16:07.646Z,28.30
2018-04-02T09:18:37.127Z,25.63
2018-04-02T09:21:06.587Z,27.23
2018-04-02T09:23:36.110Z,28.40
2018-04-02T09:26:05.566Z,27.90
2018-04-02T09:28:35.027Z,27.70
2018-04-02T09:31:04.548Z,26.90
2018-04-02T09:33:34.012Z,27.67
2018-04-02T09:36:03.492Z,25.47
2018-04-02T09:38:33.292Z,29.87
2018-04-02T09:41:02.756Z,34.53
2018-04-02T09:43:32.221Z,27.90
2018-04-02T09:46:01.708Z,22.97
2018-04-02T09:48:31.172Z,24.47
2018-04-02T09:51:00.631Z,25.00
2018-04-02T09:53:30.271Z,26.27
2018-04-02T09:55:59.720Z,30.23
2018-04-02T09:58:29.183Z,25.50
2018-04-02T10:01:00.807Z,26.37
2018-04-02T10:03:36.011Z,29.10
2018-04-02T10:06:05.508Z,26.67
2018-04-02T10:08:34.968Z,23.77
2018-04-02T10:11:04.428Z,24.63
2018-04-02T10:13:34.303Z,29.93
2018-04-02T10:16:03.768Z,24.20
2018-04-02T10:18:33.228Z,23.97
2018-04-02T10:21:03.000Z,20.83
2018-04-02T10:23:32.462Z,18.70
2018-04-02T10:26:01.915Z,19.50
2018-04-02T10:28:31.411Z,20.13
2018-04-02T10:31:00.868Z,18.57
2018-04-02T10:33:30.319Z,17.47
2018-04-02T10:35:59.907Z,20.47
2018-04-02T10:38:29.368Z,18.03
2018-04-02T10:40:58.872Z,18.53
2018-04-02T10:43:28.368Z,21.90
2018-04-02T10:45:57.826Z,14.90
2018-04-02T10:48:27.277Z,15.10
2018-04-02T10:50:56.775Z,15.57
2018-04-02T10:53:26.232Z,18.07
2018-04-02T10:55:55.687Z,14.47
2018-04-02T10:58:28.623Z,12.30
2018-04-02T11:00:58.051Z,11.53
2018-04-02T11:03:27.512Z,14.57
2018-04-02T11:05:57.300Z,14.77
2018-04-02T11:08:26.755Z,13.60
2018-04-02T11:10:56.223Z,11.23
2018-04-02T11:13:25.727Z,11.17
2018-04-02T11:15:55.184Z,16.53
2018-04-02T11:18:24.643Z,17.60
2018-04-02T11:20:54.304Z,19.20
2018-04-02T11:23:23.792Z,11.13
2018-04-02T11:25:53.272Z,11.90
2018-04-02T11:28:22.789Z,14.13
2018-04-02T11:30:52.302Z,15.20
2018-04-02T11:33:21.764Z,16.47
2018-04-02T11:35:51.409Z,16.70
2018-04-02T11:38:20.808Z,13.90
2018-04-02T11:40:50.272Z,27.70
2018-04-02T11:43:19.889Z,10.77
2018-04-02T11:45:49.339Z,9.73
2018-04-02T11:48:18.796Z,10.00
2018-04-02T11:50:48.304Z,12.17
2018-04-02T11:53:17.779Z,10.30
2018-04-02T11:55:47.235Z,8.13
2018-04-02T11:58:16.730Z,10.17
2018-04-02T12:00:46.196Z,8.73
2018-04-02T12:03:15.778Z,7.50
2018-04-02T12:05:45.259Z,6.47
2018-04-02T12:08:14.844Z,13.90
2018-04-02T12:10:44.323Z,8.53
2018-04-02T12:13:17.728Z,6.60
2018-04-02T12:15:47.175Z,6.80
2018-04-02T12:18:16.651Z,7.57
2018-04-02T12:20:46.180Z,6.80
2018-04-02T12:23:15.704Z,8.77
2018-04-02T12:25:45.132Z,4.93
2018-04-02T12:28:14.635Z,5.80
2018-04-02T12:30:44.059Z,5.17
2018-04-02T12:33:13.504Z,4.73
2018-04-02T12:35:43.043Z,4.60
2018-04-02T12:38:12.488Z,5.83
2018-04-02T12:40:41.934Z,4.13
2018-04-02T12:43:11.748Z,6.73
2018-04-02T12:45:41.233Z,5.90
2018-04-02T12:48:10.684Z,8.90
2018-04-02T12:50:40.217Z,8.93
2018-04-02T12:53:09.709Z,8.90
2018-04-02T12:55:39.156Z,12.90
2018-04-02T12:58:09.035Z,10.00
2018-04-02T13:00:38.540Z,7.40
2018-04-02T13:03:07.996Z,10.60
2018-04-02T13:05:37.600Z,11.97
2018-04-02T13:08:07.059Z,15.50
2018-04-02T13:10:36.549Z,9.10
2018-04-02T13:13:06.427Z,8.90
2018-04-02T13:15:35.879Z,10.17
2018-04-02T13:18:05.330Z,7.70
2018-04-02T13:20:34.893Z,9.90
2018-04-02T13:23:04.335Z,8.20
2018-04-02T13:25:33.784Z,7.70
2018-04-02T13:28:03.411Z,7.53
2018-04-02T13:30:32.863Z,8.50
2018-04-02T13:33:02.315Z,9.60
2018-04-02T13:35:31.815Z,10.17
2018-04-02T13:38:01.276Z,39.67
2018-04-02T13:40:30.741Z,51.43
2018-04-02T13:43:00.256Z,10.83
2018-04-02T13:45:29.707Z,9.90
2018-04-02T13:47:59.164Z,8.93
2018-04-02T13:50:28.888Z,10.73
2018-04-02T13:52:58.349Z,13.50
2018-04-02T13:55:27.808Z,12.30
2018-04-02T13:57:57.303Z,9.90
2018-04-02T14:00:26.759Z,18.23
2018-04-02T14:02:56.219Z,19.40
2018-04-02T14:05:25.748Z,11.10
2018-04-02T14:07:55.208Z,12.40
2018-04-02T14:10:24.680Z,19.83
2018-04-02T14:12:54.172Z,13.50
2018-04-02T14:15:23.639Z,13.80
2018-04-02T14:17:53.544Z,7.77
2018-04-02T14:20:23.004Z,6.30
2018-04-02T14:22:52.455Z,6.10
2018-04-02T14:25:21.963Z,6.83
2018-04-02T14:27:51.419Z,5.87
2018-04-02T14:30:20.867Z,4.50
2018-04-02T14:32:50.648Z,5.80
2018-04-02T14:35:20.104Z,5.40
2018-04-02T14:37:49.555Z,6.60
2018-04-02T14:40:19.047Z,6.10
2018-04-02T14:42:48.495Z,6.57
2018-04-02T14:45:17.948Z,6.80
2018-04-02T14:47:47.556Z,5.70
2018-04-02T14:50:17.005Z,6.10
2018-04-02T14:52:46.451Z,6.90
2018-04-02T14:55:16.038Z,7.37
2018-04-02T14:57:46.396Z,8.30
2018-04-02T15:00:15.901Z,7.37
2018-04-02T15:02:45.361Z,8.23
2018-04-02T15:05:14.807Z,5.10
2018-04-02T15:07:44.310Z,4.37
2018-04-02T15:10:13.755Z,6.10
2018-04-02T15:12:43.212Z,5.17
2018-04-02T15:15:12.799Z,5.13
2018-04-02T15:17:42.724Z,5.70
2018-04-02T15:20:12.172Z,5.70
2018-04-02T15:22:41.700Z,6.60
2018-04-02T15:25:11.153Z,6.33
2018-04-02T15:27:40.599Z,5.77
2018-04-02T15:30:10.103Z,4.93
2018-04-02T15:32:39.543Z,10.43
2018-04-02T15:35:09.028Z,11.57
2018-04-02T15:37:38.540Z,14.90
2018-04-02T15:40:07.996Z,5.30
2018-04-02T15:42:37.443Z,5.37
2018-04-02T15:45:07.002Z,5.70
2018-04-02T15:47:36.447Z,7.03
2018-04-02T15:50:05.902Z,14.13
2018-04-02T15:52:35.720Z,62.03
2018-04-02T15:55:05.171Z,24.03
2018-04-02T15:57:34.631Z,6.47
2018-04-02T16:00:04.151Z,7.40
2018-04-02T16:02:33.599Z,5.43
2018-04-02T16:05:04.096Z,5.73
2018-04-02T16:07:33.543Z,8.10
2018-04-02T16:10:03.004Z,26.10
2018-04-02T16:12:32.505Z,16.47
2018-04-02T16:15:01.956Z,27.30
2018-04-02T16:17:31.416Z,12.60
2018-04-02T16:20:00.902Z,5.83
2018-04-02T16:22:30.358Z,6.70
2018-04-02T16:24:59.799Z,6.97
2018-04-02T16:27:29.320Z,5.60
2018-04-02T16:29:58.768Z,5.03
2018-04-02T16:32:28.220Z,6.47
2018-04-02T16:34:57.875Z,4.80
2018-04-02T16:37:27.336Z,4.03
2018-04-02T16:39:56.787Z,4.03
2018-04-02T16:42:26.273Z,5.83
2018-04-02T16:45:01.251Z,4.00
2018-04-02T16:47:30.800Z,4.47
2018-04-02T16:50:00.244Z,4.70
2018-04-02T16:52:29.697Z,6.00
2018-04-02T16:54:59.296Z,6.17
2018-04-02T16:57:28.768Z,7.17
2018-04-02T16:59:58.233Z,5.70
2018-04-02T17:02:27.789Z,5.90
2018-04-02T17:04:57.291Z,6.27
2018-04-02T17:07:26.747Z,7.07
2018-04-02T17:09:56.284Z,8.27
2018-04-02T17:12:25.744Z,9.27
2018-04-02T17:14:55.196Z,8.50
2018-04-02T17:17:24.704Z,12.60
2018-04-02T17:19:54.161Z,8.13
2018-04-02T17:22:23.620Z,11.20
2018-04-02T17:24:53.124Z,10.20
2018-04-02T17:27:22.568Z,8.80
2018-04-02T17:29:52.029Z,9.30
2018-04-02T17:32:21.539Z,9.37
2018-04-02T17:34:51.004Z,13.20
2018-04-02T17:37:20.459Z,13.13
2018-04-02T17:39:49.967Z,22.97
2018-04-02T17:42:19.423Z,18.70
2018-04-02T17:44:48.880Z,12.93
2018-04-02T17:47:18.371Z,17.03
2018-04-02T17:49:47.823Z,10.40
2018-04-02T17:52:17.288Z,12.00
2018-04-02T17:54:46.836Z,10.13
2018-04-02T17:57:16.288Z,8.90
2018-04-02T17:59:45.737Z,8.10
2018-04-02T18:02:15.228Z,7.40
2018-04-02T18:04:44.685Z,8.57
2018-04-02T18:07:14.141Z,14.60
2018-04-02T18:09:43.664Z,12.80
2018-04-02T18:12:13.118Z,14.33
2018-04-02T18:14:42.581Z,10.57
2018-04-02T18:17:12.120Z,13.70
2018-04-02T18:19:41.607Z,10.03
2018-04-02T18:22:11.040Z,16.47
2018-04-02T18:24:40.543Z,16.67
2018-04-02T18:27:10.000Z,9.20
2018-04-02T18:29:39.452Z,7.13
2018-04-02T18:32:08.936Z,9.23
2018-04-02T18:34:38.395Z,16.90
2018-04-02T18:37:07.855Z,21.90
2018-04-02T18:39:37.515Z,17.97
2018-04-02T18:42:07.017Z,19.10
2018-04-02T18:44:36.484Z,11.20
2018-04-02T18:47:06.030Z,12.27
2018-04-02T18:49:35.467Z,10.47
2018-04-02T18:52:04.937Z,11.87
2018-04-02T18:54:34.632Z,16.30
2018-04-02T18:57:04.044Z,19.30
2018-04-02T18:59:33.515Z,47.17
2018-04-02T19:02:03.015Z,30.87
2018-04-02T19:04:32.500Z,19.00
2018-04-02T19:07:01.952Z,14.93
2018-04-02T19:09:31.472Z,14.53
2018-04-02T19:12:00.927Z,8.37
2018-04-02T19:14:30.418Z,16.00
2018-04-02T19:16:59.975Z,28.30
2018-04-02T19:19:29.440Z,17.60
2018-04-02T19:21:58.900Z,16.60
2018-04-02T19:24:28.712Z,18.83
2018-04-02T19:26:58.168Z,16.73
2018-04-02T19:29:27.699Z,18.47
2018-04-02T19:31:57.404Z,17.60
2018-04-02T19:34:26.883Z,9.30
2018-04-02T19:36:56.339Z,11.63
2018-04-02T19:39:25.844Z,16.07
2018-04-02T19:41:55.296Z,9.40
2018-04-02T19:44:24.751Z,10.90
2018-04-02T19:46:54.423Z,16.00
2018-04-02T19:49:23.888Z,14.30
2018-04-02T19:51:53.348Z,13.83
2018-04-02T19:54:22.885Z,16.30
2018-04-02T19:56:52.316Z,9.43
2018-04-02T19:59:21.771Z,10.63
2018-04-02T20:01:51.260Z,8.40
2018-04-02T20:04:20.715Z,10.07
2018-04-02T20:06:50.187Z,6.67
2018-04-02T20:09:19.707Z,9.90
2018-04-02T20:11:49.172Z,11.77
2018-04-02T20:14:18.628Z,9.83
2018-04-02T20:16:48.124Z,10.37
2018-04-02T20:19:17.583Z,11.47
2018-04-02T20:21:47.044Z,11.80
2018-04-02T20:24:16.545Z,10.73
2018-04-02T20:26:46.003Z,12.53
2018-04-02T20:29:15.459Z,16.67
2018-04-02T20:31:44.960Z,18.80
2018-04-02T20:34:14.435Z,15.93
2018-04-02T20:36:43.900Z,11.50
2018-04-02T20:39:13.391Z,12.17
2018-04-02T20:41:42.852Z,20.13
2018-04-02T20:44:12.304Z,16.23
2018-04-02T20:46:41.799Z,19.37
2018-04-02T20:49:11.252Z,20.20
2018-04-02T20:51:40.719Z,14.53
2018-04-02T20:54:10.694Z,12.03
2018-04-02T20:56:40.083Z,10.20
2018-04-02T20:59:09.540Z,11.03
2018-04-02T21:01:39.028Z,17.63
2018-04-02T21:04:08.486Z,30.97
2018-04-02T21:06:37.957Z,23.67
2018-04-02T21:09:07.632Z,12.30
2018-04-02T21:11:37.088Z,15.93
2018-04-02T21:14:06.539Z,10.80
2018-04-02T21:16:36.312Z,11.30
2018-04-02T21:19:05.776Z,14.43
2018-04-02T21:21:35.232Z,20.80
2018-04-02T21:24:04.728Z,17.57
2018-04-02T21:26:34.179Z,9.70
2018-04-02T21:29:03.640Z,11.30
2018-04-02T21:31:33.133Z,13.10
2018-04-02T21:34:02.587Z,10.37
2018-04-02T21:36:32.044Z,6.60
2018-04-02T21:39:01.911Z,9.13
2018-04-02T21:41:31.347Z,13.03
2018-04-02T21:44:00.800Z,6.00
2018-04-02T21:46:30.284Z,8.50
2018-04-02T21:48:59.739Z,8.90
2018-04-02T21:51:29.226Z,6.93
2018-04-02T21:53:58.771Z,7.13
2018-04-02T21:56:28.225Z,10.83
2018-04-02T21:58:57.680Z,16.23
2018-04-02T22:01:27.224Z,9.33
2018-04-02T22:03:56.684Z,10.17
2018-04-02T22:06:31.946Z,10.23
2018-04-02T22:09:01.430Z,10.23
2018-04-02T22:11:30.856Z,9.10
2018-04-02T22:14:00.738Z,9.87
2018-04-02T22:16:30.184Z,6.97
2018-04-02T22:18:59.636Z,6.43
2018-04-02T22:21:29.116Z,5.23
2018-04-02T22:23:58.583Z,16.50
2018-04-02T22:26:28.040Z,20.10
2018-04-02T22:28:57.532Z,12.30
2018-04-02T22:31:26.993Z,11.47
2018-04-02T22:33:56.451Z,9.40
2018-04-02T22:36:26.040Z,20.53
2018-04-02T22:38:55.508Z,12.47
2018-04-02T22:41:24.948Z,6.30
2018-04-02T22:43:54.456Z,8.53
2018-04-02T22:46:23.920Z,12.43
2018-04-02T22:48:53.382Z,12.80
2018-04-02T22:51:25.911Z,6.60
2018-04-02T22:53:55.352Z,6.87
2018-04-02T22:56:24.804Z,4.73
2018-04-02T22:58:54.324Z,4.90
2018-04-02T23:01:23.771Z,5.67
2018-04-02T23:03:53.220Z,5.70
2018-04-02T23:06:22.976Z,7.37
2018-04-02T23:08:52.423Z,4.80
2018-04-02T23:11:21.875Z,6.30
2018-04-02T23:13:51.367Z,4.30
2018-04-02T23:16:20.825Z,3.33
2018-04-02T23:18:50.267Z,3.63
2018-04-02T23:21:19.749Z,3.30
2018-04-02T23:23:49.201Z,4.20
2018-04-02T23:26:18.648Z,3.37
2018-04-02T23:28:48.148Z,3.40
2018-04-02T23:31:17.597Z,4.87
2018-04-02T23:33:47.045Z,4.40
2018-04-02T23:36:16.640Z,3.70
2018-04-02T23:38:46.087Z,4.13
2018-04-02T23:41:15.536Z,3.70
2018-04-02T23:43:45.013Z,3.30
2018-04-02T23:46:14.456Z,3.73
2018-04-02T23:48:43.900Z,3.03
2018-04-02T23:51:13.392Z,3.43
2018-04-02T23:53:42.835Z,3.13
2018-04-02T23:56:12.283Z,2.93
2018-04-02T23:58:41.771Z,4.10
